sensor_id;sensor_type;location;lat;lon;timestamp;P1;durP1;ratioP1;P2;durP2;ratioP2
5833;SDS011;2943;48.012;10.968;2022-12-24T00:01:36;14.03;;;7.60;;
5833;SDS011;2943;48.012;10.968;2022-12-24T00:04:03;7.90;;;5.90;;
5833;SDS011;2943;48.012;10.968;2022-12-24T00:06:31;1.40;;;1.30;;
5833;SDS011;2943;48.012;10.968;2022-12-24T00:08:57;1.53;;;1.30;;
5833;SDS011;2943;48.012;10.968;2022-12-24T00:11:26;1.50;;;1.30;;
5833;SDS011;2943;48.012;10.968;2022-12-24T00:13:53;2.20;;;1.57;;
5833;SDS011;2943;48.012;10.968;2022-12-24T00:16:19;6.63;;;1.70;;
5833;SDS011;2943;48.012;10.968;2022-12-24T00:18:46;1.57;;;1.47;;
5833;SDS011;2943;48.012;10.968;2022-12-24T00:21:13;1.70;;;1.60;;
5833;SDS011;2943;48.012;10.968;2022-12-24T00:23:40;1.70;;;1.50;;
5833;SDS011;2943;48.012;10.968;2022-12-24T00:26:08;3.13;;;1.70;;
5833;SDS011;2943;48.012;10.968;2022-12-24T00:28:36;2.13;;;1.92;;
5833;SDS011;2943;48.012;10.968;2022-12-24T00:31:06;1.58;;;1.27;;
5833;SDS011;2943;48.012;10.968;2022-12-24T00:33:33;1.77;;;1.40;;
5833;SDS011;2943;48.012;10.968;2022-12-24T00:36:00;1.60;;;1.50;;
5833;SDS011;2943;48.012;10.968;2022-12-24T00:38:27;2.13;;;1.93;;
5833;SDS011;2943;48.012;10.968;2022-12-24T00:40:56;1.50;;;1.40;;
5833;SDS011;2943;48.012;10.968;2022-12-24T00:43:24;4.63;;;1.60;;
5833;SDS011;2943;48.012;10.968;2022-12-24T00:45:52;2.10;;;1.43;;
5833;SDS011;2943;48.012;10.968;2022-12-24T00:48:19;2.70;;;1.70;;
5833;SDS011;2943;48.012;10.968;2022-12-24T00:50:47;1.70;;;1.60;;
5833;SDS011;2943;48.012;10.968;2022-12-24T00:53:14;1.37;;;1.27;;
5833;SDS011;2943;48.012;10.968;2022-12-24T00:55:41;1.70;;;1.40;;
5833;SDS011;2943;48.012;10.968;2022-12-24T00:58:07;2.20;;;1.53;;
5833;SDS011;2943;48.012;10.968;2022-12-24T01:00:34;1.87;;;1.63;;
5833;SDS011;2943;48.012;10.968;2022-12-24T01:03:03;2.93;;;1.50;;
5833;SDS011;2943;48.012;10.968;2022-12-24T01:05:30;1.83;;;1.60;;
5833;SDS011;2943;48.012;10.968;2022-12-24T01:07:55;2.40;;;1.37;;
5833;SDS011;2943;48.012;10.968;2022-12-24T01:10:22;2.90;;;1.60;;
5833;SDS011;2943;48.012;10.968;2022-12-24T01:12:49;1.93;;;1.50;;
5833;SDS011;2943;48.012;10.968;2022-12-24T01:15:16;5.53;;;1.60;;
5833;SDS011;2943;48.012;10.968;2022-12-24T01:17:43;1.70;;;1.60;;
5833;SDS011;2943;48.012;10.968;2022-12-24T01:20:12;2.13;;;1.60;;
5833;SDS011;2943;48.012;10.968;2022-12-24T01:22:40;6.63;;;1.70;;
5833;SDS011;2943;48.012;10.968;2022-12-24T01:25:07;2.73;;;1.63;;
5833;SDS011;2943;48.012;10.968;2022-12-24T01:27:34;3.20;;;1.67;;
5833;SDS011;2943;48.012;10.968;2022-12-24T01:30:02;2.77;;;1.63;;
5833;SDS011;2943;48.012;10.968;2022-12-24T01:32:29;1.50;;;1.40;;
5833;SDS011;2943;48.012;10.968;2022-12-24T01:34:56;1.53;;;1.40;;
5833;SDS011;2943;48.012;10.968;2022-12-24T01:37:25;2.50;;;1.50;;
5833;SDS011;2943;48.012;10.968;2022-12-24T01:39:52;2.10;;;1.30;;
5833;SDS011;2943;48.012;10.968;2022-12-24T01:42:45;1.60;;;1.50;;
5833;SDS011;2943;48.012;10.968;2022-12-24T01:45:41;1.77;;;1.57;;
5833;SDS011;2943;48.012;10.968;2022-12-24T01:51:01;2.30;;;1.63;;
5833;SDS011;2943;48.012;10.968;2022-12-24T01:53:33;1.80;;;1.37;;
5833;SDS011;2943;48.012;10.968;2022-12-24T01:56:03;3.20;;;1.93;;
5833;SDS011;2943;48.012;10.968;2022-12-24T01:58:32;1.80;;;1.40;;
5833;SDS011;2943;48.012;10.968;2022-12-24T02:01:00;1.97;;;1.60;;
5833;SDS011;2943;48.012;10.968;2022-12-24T02:03:27;2.20;;;1.37;;
5833;SDS011;2943;48.012;10.968;2022-12-24T02:05:55;2.00;;;1.50;;
5833;SDS011;2943;48.012;10.968;2022-12-24T02:08:24;5.97;;;2.17;;
5833;SDS011;2943;48.012;10.968;2022-12-24T02:11:09;4.00;;;2.07;;
5833;SDS011;2943;48.012;10.968;2022-12-24T02:13:36;1.63;;;1.53;;
5833;SDS011;2943;48.012;10.968;2022-12-24T02:16:05;5.40;;;1.93;;
5833;SDS011;2943;48.012;10.968;2022-12-24T02:18:41;4.10;;;1.80;;
5833;SDS011;2943;48.012;10.968;2022-12-24T02:27:30;4.37;;;1.77;;
5833;SDS011;2943;48.012;10.968;2022-12-24T02:30:07;4.60;;;1.50;;
5833;SDS011;2943;48.012;10.968;2022-12-24T02:32:48;3.40;;;1.57;;
5833;SDS011;2943;48.012;10.968;2022-12-24T02:35:26;3.60;;;1.50;;
5833;SDS011;2943;48.012;10.968;2022-12-24T02:37:59;1.83;;;1.37;;
5833;SDS011;2943;48.012;10.968;2022-12-24T02:40:30;2.47;;;1.80;;
5833;SDS011;2943;48.012;10.968;2022-12-24T02:43:02;1.60;;;1.50;;
5833;SDS011;2943;48.012;10.968;2022-12-24T02:45:34;1.70;;;1.53;;
5833;SDS011;2943;48.012;10.968;2022-12-24T02:48:03;3.97;;;1.80;;
5833;SDS011;2943;48.012;10.968;2022-12-24T02:50:32;1.83;;;1.73;;
5833;SDS011;2943;48.012;10.968;2022-12-24T02:52:58;6.50;;;1.70;;
5833;SDS011;2943;48.012;10.968;2022-12-24T02:55:27;2.60;;;1.90;;
5833;SDS011;2943;48.012;10.968;2022-12-24T02:58:06;2.47;;;1.50;;
5833;SDS011;2943;48.012;10.968;2022-12-24T03:00:45;2.27;;;1.60;;
5833;SDS011;2943;48.012;10.968;2022-12-24T03:03:31;2.40;;;1.60;;
5833;SDS011;2943;48.012;10.968;2022-12-24T03:06:04;4.70;;;1.90;;
5833;SDS011;2943;48.012;10.968;2022-12-24T03:08:39;5.83;;;1.90;;
5833;SDS011;2943;48.012;10.968;2022-12-24T03:11:13;3.90;;;1.40;;
5833;SDS011;2943;48.012;10.968;2022-12-24T03:13:40;1.73;;;1.63;;
5833;SDS011;2943;48.012;10.968;2022-12-24T03:16:10;2.60;;;1.67;;
5833;SDS011;2943;48.012;10.968;2022-12-24T03:18:40;1.70;;;1.60;;
5833;SDS011;2943;48.012;10.968;2022-12-24T03:21:12;1.50;;;1.40;;
5833;SDS011;2943;48.012;10.968;2022-12-24T03:23:42;1.90;;;1.73;;
5833;SDS011;2943;48.012;10.968;2022-12-24T03:26:10;1.67;;;1.47;;
5833;SDS011;2943;48.012;10.968;2022-12-24T03:28:39;2.80;;;1.70;;
5833;SDS011;2943;48.012;10.968;2022-12-24T03:31:07;6.87;;;1.60;;
5833;SDS011;2943;48.012;10.968;2022-12-24T03:33:36;4.40;;;1.90;;
5833;SDS011;2943;48.012;10.968;2022-12-24T03:36:04;1.40;;;1.30;;
5833;SDS011;2943;48.012;10.968;2022-12-24T03:38:32;3.43;;;1.60;;
5833;SDS011;2943;48.012;10.968;2022-12-24T03:40:59;3.10;;;1.17;;
5833;SDS011;2943;48.012;10.968;2022-12-24T03:43:27;1.87;;;1.40;;
5833;SDS011;2943;48.012;10.968;2022-12-24T03:45:55;1.30;;;1.13;;
5833;SDS011;2943;48.012;10.968;2022-12-24T03:48:23;2.20;;;1.40;;
5833;SDS011;2943;48.012;10.968;2022-12-24T03:50:50;1.70;;;1.40;;
5833;SDS011;2943;48.012;10.968;2022-12-24T03:53:17;2.77;;;1.50;;
5833;SDS011;2943;48.012;10.968;2022-12-24T03:55:43;1.77;;;1.30;;
5833;SDS011;2943;48.012;10.968;2022-12-24T03:58:12;3.33;;;1.87;;
5833;SDS011;2943;48.012;10.968;2022-12-24T04:00:38;2.00;;;1.70;;
5833;SDS011;2943;48.012;10.968;2022-12-24T04:03:05;3.83;;;1.20;;
5833;SDS011;2943;48.012;10.968;2022-12-24T04:05:34;2.50;;;1.70;;
5833;SDS011;2943;48.012;10.968;2022-12-24T04:08:00;3.00;;;1.30;;
5833;SDS011;2943;48.012;10.968;2022-12-24T04:10:27;4.87;;;1.73;;
5833;SDS011;2943;48.012;10.968;2022-12-24T04:12:56;3.33;;;1.60;;
5833;SDS011;2943;48.012;10.968;2022-12-24T04:15:24;1.90;;;1.70;;
5833;SDS011;2943;48.012;10.968;2022-12-24T04:17:51;3.83;;;1.50;;
5833;SDS011;2943;48.012;10.968;2022-12-24T04:20:18;2.87;;;1.60;;
5833;SDS011;2943;48.012;10.968;2022-12-24T04:22:46;2.00;;;1.73;;
5833;SDS011;2943;48.012;10.968;2022-12-24T04:25:13;4.80;;;1.80;;
5833;SDS011;2943;48.012;10.968;2022-12-24T04:27:40;2.40;;;1.70;;
5833;SDS011;2943;48.012;10.968;2022-12-24T04:30:07;3.03;;;1.33;;
5833;SDS011;2943;48.012;10.968;2022-12-24T04:32:34;2.50;;;1.57;;
5833;SDS011;2943;48.012;10.968;2022-12-24T04:35:01;1.57;;;1.47;;
5833;SDS011;2943;48.012;10.968;2022-12-24T04:37:28;2.57;;;1.60;;
5833;SDS011;2943;48.012;10.968;2022-12-24T04:39:56;2.13;;;1.43;;
5833;SDS011;2943;48.012;10.968;2022-12-24T04:42:23;1.60;;;1.50;;
5833;SDS011;2943;48.012;10.968;2022-12-24T04:44:50;6.50;;;2.33;;
5833;SDS011;2943;48.012;10.968;2022-12-24T04:47:17;1.40;;;1.30;;
5833;SDS011;2943;48.012;10.968;2022-12-24T04:49:43;2.23;;;1.57;;
5833;SDS011;2943;48.012;10.968;2022-12-24T04:52:10;2.90;;;1.60;;
5833;SDS011;2943;48.012;10.968;2022-12-24T04:54:37;4.97;;;1.73;;
5833;SDS011;2943;48.012;10.968;2022-12-24T04:57:05;5.60;;;1.70;;
5833;SDS011;2943;48.012;10.968;2022-12-24T04:59:32;4.80;;;1.80;;
5833;SDS011;2943;48.012;10.968;2022-12-24T05:01:59;5.70;;;1.40;;
5833;SDS011;2943;48.012;10.968;2022-12-24T05:04:26;4.33;;;1.90;;
5833;SDS011;2943;48.012;10.968;2022-12-24T05:06:53;4.38;;;1.67;;
5833;SDS011;2943;48.012;10.968;2022-12-24T05:09:21;3.20;;;1.87;;
5833;SDS011;2943;48.012;10.968;2022-12-24T05:11:48;1.60;;;1.50;;
5833;SDS011;2943;48.012;10.968;2022-12-24T05:14:16;5.13;;;1.60;;
5833;SDS011;2943;48.012;10.968;2022-12-24T05:16:43;1.97;;;1.80;;
5833;SDS011;2943;48.012;10.968;2022-12-24T05:19:10;2.35;;;1.50;;
5833;SDS011;2943;48.012;10.968;2022-12-24T05:21:37;2.70;;;1.60;;
5833;SDS011;2943;48.012;10.968;2022-12-24T05:24:04;9.43;;;1.60;;
5833;SDS011;2943;48.012;10.968;2022-12-24T05:26:49;4.07;;;1.80;;
5833;SDS011;2943;48.012;10.968;2022-12-24T05:29:20;1.77;;;1.67;;
5833;SDS011;2943;48.012;10.968;2022-12-24T05:31:47;2.60;;;1.70;;
5833;SDS011;2943;48.012;10.968;2022-12-24T05:34:14;4.77;;;1.63;;
5833;SDS011;2943;48.012;10.968;2022-12-24T05:36:42;5.63;;;1.80;;
5833;SDS011;2943;48.012;10.968;2022-12-24T05:39:09;1.37;;;1.27;;
5833;SDS011;2943;48.012;10.968;2022-12-24T05:41:39;3.43;;;1.43;;
5833;SDS011;2943;48.012;10.968;2022-12-24T05:44:06;2.00;;;1.20;;
5833;SDS011;2943;48.012;10.968;2022-12-24T05:46:34;2.97;;;1.50;;
5833;SDS011;2943;48.012;10.968;2022-12-24T05:49:01;1.90;;;1.63;;
5833;SDS011;2943;48.012;10.968;2022-12-24T05:51:28;3.03;;;1.50;;
5833;SDS011;2943;48.012;10.968;2022-12-24T05:53:55;2.80;;;1.10;;
5833;SDS011;2943;48.012;10.968;2022-12-24T05:56:22;1.27;;;1.10;;
5833;SDS011;2943;48.012;10.968;2022-12-24T05:58:50;1.63;;;1.40;;
5833;SDS011;2943;48.012;10.968;2022-12-24T06:01:18;2.97;;;1.40;;
5833;SDS011;2943;48.012;10.968;2022-12-24T06:03:47;2.80;;;1.20;;
5833;SDS011;2943;48.012;10.968;2022-12-24T06:06:15;2.43;;;1.60;;
5833;SDS011;2943;48.012;10.968;2022-12-24T06:08:45;3.60;;;1.47;;
5833;SDS011;2943;48.012;10.968;2022-12-24T06:11:13;1.50;;;1.23;;
5833;SDS011;2943;48.012;10.968;2022-12-24T06:13:41;2.00;;;1.37;;
5833;SDS011;2943;48.012;10.968;2022-12-24T06:16:09;1.43;;;1.20;;
5833;SDS011;2943;48.012;10.968;2022-12-24T06:18:37;2.20;;;1.37;;
5833;SDS011;2943;48.012;10.968;2022-12-24T06:21:06;2.03;;;1.40;;
5833;SDS011;2943;48.012;10.968;2022-12-24T06:23:34;3.43;;;1.80;;
5833;SDS011;2943;48.012;10.968;2022-12-24T06:26:04;1.37;;;1.27;;
5833;SDS011;2943;48.012;10.968;2022-12-24T06:28:33;3.23;;;1.23;;
5833;SDS011;2943;48.012;10.968;2022-12-24T06:31:02;4.00;;;1.50;;
5833;SDS011;2943;48.012;10.968;2022-12-24T06:33:30;1.10;;;1.00;;
5833;SDS011;2943;48.012;10.968;2022-12-24T06:35:57;1.43;;;1.30;;
5833;SDS011;2943;48.012;10.968;2022-12-24T06:38:28;3.00;;;1.17;;
5833;SDS011;2943;48.012;10.968;2022-12-24T06:40:55;3.90;;;1.60;;
5833;SDS011;2943;48.012;10.968;2022-12-24T06:43:21;2.80;;;1.30;;
5833;SDS011;2943;48.012;10.968;2022-12-24T06:45:48;6.73;;;1.60;;
5833;SDS011;2943;48.012;10.968;2022-12-24T06:48:15;5.50;;;1.63;;
5833;SDS011;2943;48.012;10.968;2022-12-24T06:50:42;4.90;;;1.30;;
5833;SDS011;2943;48.012;10.968;2022-12-24T06:53:09;3.00;;;1.33;;
5833;SDS011;2943;48.012;10.968;2022-12-24T06:55:37;2.70;;;1.77;;
5833;SDS011;2943;48.012;10.968;2022-12-24T06:58:04;1.63;;;1.30;;
5833;SDS011;2943;48.012;10.968;2022-12-24T07:00:31;2.93;;;1.30;;
5833;SDS011;2943;48.012;10.968;2022-12-24T07:02:58;3.53;;;1.30;;
5833;SDS011;2943;48.012;10.968;2022-12-24T07:05:25;1.37;;;1.27;;
5833;SDS011;2943;48.012;10.968;2022-12-24T07:07:52;3.57;;;1.50;;
5833;SDS011;2943;48.012;10.968;2022-12-24T07:10:19;2.50;;;1.30;;
5833;SDS011;2943;48.012;10.968;2022-12-24T07:12:48;1.47;;;1.20;;
5833;SDS011;2943;48.012;10.968;2022-12-24T07:15:15;3.80;;;1.50;;
5833;SDS011;2943;48.012;10.968;2022-12-24T07:17:42;2.50;;;1.30;;
5833;SDS011;2943;48.012;10.968;2022-12-24T07:20:10;2.23;;;1.10;;
5833;SDS011;2943;48.012;10.968;2022-12-24T07:22:38;1.27;;;1.17;;
5833;SDS011;2943;48.012;10.968;2022-12-24T07:25:05;1.53;;;1.43;;
5833;SDS011;2943;48.012;10.968;2022-12-24T07:27:33;1.83;;;1.40;;
5833;SDS011;2943;48.012;10.968;2022-12-24T07:30:01;3.97;;;1.50;;
5833;SDS011;2943;48.012;10.968;2022-12-24T07:32:29;1.70;;;1.23;;
5833;SDS011;2943;48.012;10.968;2022-12-24T07:34:56;1.67;;;1.37;;
5833;SDS011;2943;48.012;10.968;2022-12-24T07:37:23;1.10;;;1.00;;
5833;SDS011;2943;48.012;10.968;2022-12-24T07:39:50;1.33;;;1.20;;
5833;SDS011;2943;48.012;10.968;2022-12-24T07:42:16;1.50;;;1.40;;
5833;SDS011;2943;48.012;10.968;2022-12-24T07:44:43;1.30;;;1.20;;
5833;SDS011;2943;48.012;10.968;2022-12-24T07:47:11;3.70;;;1.47;;
5833;SDS011;2943;48.012;10.968;2022-12-24T07:49:38;1.20;;;1.10;;
5833;SDS011;2943;48.012;10.968;2022-12-24T07:52:05;3.30;;;1.23;;
5833;SDS011;2943;48.012;10.968;2022-12-24T07:54:32;2.20;;;1.50;;
5833;SDS011;2943;48.012;10.968;2022-12-24T07:56:59;3.40;;;1.47;;
5833;SDS011;2943;48.012;10.968;2022-12-24T07:59:26;2.87;;;1.40;;
5833;SDS011;2943;48.012;10.968;2022-12-24T08:01:53;5.10;;;1.50;;
5833;SDS011;2943;48.012;10.968;2022-12-24T08:04:21;2.03;;;1.20;;
5833;SDS011;2943;48.012;10.968;2022-12-24T08:06:48;1.50;;;1.40;;
5833;SDS011;2943;48.012;10.968;2022-12-24T08:09:15;1.20;;;1.10;;
5833;SDS011;2943;48.012;10.968;2022-12-24T08:11:41;1.97;;;1.40;;
5833;SDS011;2943;48.012;10.968;2022-12-24T08:14:09;1.50;;;1.37;;
5833;SDS011;2943;48.012;10.968;2022-12-24T08:16:36;1.97;;;1.30;;
5833;SDS011;2943;48.012;10.968;2022-12-24T08:19:04;5.13;;;1.60;;
5833;SDS011;2943;48.012;10.968;2022-12-24T08:21:33;1.70;;;1.40;;
5833;SDS011;2943;48.012;10.968;2022-12-24T08:24:01;1.50;;;1.40;;
5833;SDS011;2943;48.012;10.968;2022-12-24T08:26:29;2.53;;;1.43;;
5833;SDS011;2943;48.012;10.968;2022-12-24T08:28:57;1.60;;;1.33;;
5833;SDS011;2943;48.012;10.968;2022-12-24T08:31:25;1.40;;;1.30;;
5833;SDS011;2943;48.012;10.968;2022-12-24T08:33:53;4.03;;;1.60;;
5833;SDS011;2943;48.012;10.968;2022-12-24T08:36:21;2.23;;;1.43;;
5833;SDS011;2943;48.012;10.968;2022-12-24T08:38:50;1.60;;;1.50;;
5833;SDS011;2943;48.012;10.968;2022-12-24T08:41:16;4.00;;;1.37;;
5833;SDS011;2943;48.012;10.968;2022-12-24T08:43:43;4.93;;;1.40;;
5833;SDS011;2943;48.012;10.968;2022-12-24T08:46:10;1.33;;;1.20;;
5833;SDS011;2943;48.012;10.968;2022-12-24T08:48:37;1.67;;;1.40;;
5833;SDS011;2943;48.012;10.968;2022-12-24T08:51:07;2.93;;;1.33;;
5833;SDS011;2943;48.012;10.968;2022-12-24T08:53:34;1.77;;;1.40;;
5833;SDS011;2943;48.012;10.968;2022-12-24T08:56:03;1.53;;;1.17;;
5833;SDS011;2943;48.012;10.968;2022-12-24T08:58:31;5.70;;;1.33;;
5833;SDS011;2943;48.012;10.968;2022-12-24T09:00:58;1.97;;;1.27;;
5833;SDS011;2943;48.012;10.968;2022-12-24T09:03:26;2.23;;;1.37;;
5833;SDS011;2943;48.012;10.968;2022-12-24T09:05:53;2.30;;;1.17;;
5833;SDS011;2943;48.012;10.968;2022-12-24T09:08:20;2.50;;;1.20;;
5833;SDS011;2943;48.012;10.968;2022-12-24T09:10:47;2.13;;;1.20;;
5833;SDS011;2943;48.012;10.968;2022-12-24T09:13:15;6.87;;;1.53;;
5833;SDS011;2943;48.012;10.968;2022-12-24T09:15:42;2.30;;;1.20;;
5833;SDS011;2943;48.012;10.968;2022-12-24T09:18:17;1.87;;;1.30;;
5833;SDS011;2943;48.012;10.968;2022-12-24T09:20:44;3.03;;;1.20;;
5833;SDS011;2943;48.012;10.968;2022-12-24T09:23:10;1.67;;;1.57;;
5833;SDS011;2943;48.012;10.968;2022-12-24T09:25:39;3.20;;;1.80;;
5833;SDS011;2943;48.012;10.968;2022-12-24T09:28:06;1.60;;;1.50;;
5833;SDS011;2943;48.012;10.968;2022-12-24T09:30:34;2.50;;;1.17;;
5833;SDS011;2943;48.012;10.968;2022-12-24T09:33:01;1.67;;;1.30;;
5833;SDS011;2943;48.012;10.968;2022-12-24T09:35:28;4.40;;;1.60;;
5833;SDS011;2943;48.012;10.968;2022-12-24T09:37:55;3.00;;;1.60;;
5833;SDS011;2943;48.012;10.968;2022-12-24T09:40:28;3.27;;;1.50;;
5833;SDS011;2943;48.012;10.968;2022-12-24T09:43:00;10.03;;;5.03;;
5833;SDS011;2943;48.012;10.968;2022-12-24T09:45:32;3.70;;;2.80;;
5833;SDS011;2943;48.012;10.968;2022-12-24T09:48:04;9.00;;;3.37;;
5833;SDS011;2943;48.012;10.968;2022-12-24T09:50:39;1.67;;;1.57;;
5833;SDS011;2943;48.012;10.968;2022-12-24T09:53:11;6.07;;;2.50;;
5833;SDS011;2943;48.012;10.968;2022-12-24T09:55:44;3.23;;;1.43;;
5833;SDS011;2943;48.012;10.968;2022-12-24T09:58:15;2.10;;;2.00;;
5833;SDS011;2943;48.012;10.968;2022-12-24T10:00:50;1.57;;;1.47;;
5833;SDS011;2943;48.012;10.968;2022-12-24T10:03:18;2.70;;;1.60;;
5833;SDS011;2943;48.012;10.968;2022-12-24T10:05:47;3.40;;;1.70;;
5833;SDS011;2943;48.012;10.968;2022-12-24T10:08:25;1.80;;;1.50;;
5833;SDS011;2943;48.012;10.968;2022-12-24T10:10:58;2.37;;;1.90;;
5833;SDS011;2943;48.012;10.968;2022-12-24T10:13:34;2.43;;;2.17;;
5833;SDS011;2943;48.012;10.968;2022-12-24T10:16:16;2.50;;;1.70;;
5833;SDS011;2943;48.012;10.968;2022-12-24T10:18:49;5.13;;;3.10;;
5833;SDS011;2943;48.012;10.968;2022-12-24T10:21:24;4.60;;;3.20;;
5833;SDS011;2943;48.012;10.968;2022-12-24T10:23:59;3.77;;;2.00;;
5833;SDS011;2943;48.012;10.968;2022-12-24T10:26:33;5.03;;;1.67;;
5833;SDS011;2943;48.012;10.968;2022-12-24T10:29:05;3.60;;;1.70;;
5833;SDS011;2943;48.012;10.968;2022-12-24T10:31:43;3.30;;;2.27;;
5833;SDS011;2943;48.012;10.968;2022-12-24T10:34:18;1.77;;;1.60;;
5833;SDS011;2943;48.012;10.968;2022-12-24T10:36:47;4.03;;;1.43;;
5833;SDS011;2943;48.012;10.968;2022-12-24T10:39:15;3.97;;;1.80;;
5833;SDS011;2943;48.012;10.968;2022-12-24T10:41:44;2.50;;;1.83;;
5833;SDS011;2943;48.012;10.968;2022-12-24T10:44:14;3.43;;;1.80;;
5833;SDS011;2943;48.012;10.968;2022-12-24T10:46:45;4.93;;;1.80;;
5833;SDS011;2943;48.012;10.968;2022-12-24T10:49:13;2.60;;;1.63;;
5833;SDS011;2943;48.012;10.968;2022-12-24T10:51:44;2.50;;;1.63;;
5833;SDS011;2943;48.012;10.968;2022-12-24T10:54:16;2.40;;;1.93;;
5833;SDS011;2943;48.012;10.968;2022-12-24T10:56:46;4.10;;;1.63;;
5833;SDS011;2943;48.012;10.968;2022-12-24T10:59:22;4.67;;;1.53;;
5833;SDS011;2943;48.012;10.968;2022-12-24T11:01:53;5.00;;;2.33;;
5833;SDS011;2943;48.012;10.968;2022-12-24T11:04:21;5.30;;;1.70;;
5833;SDS011;2943;48.012;10.968;2022-12-24T11:06:53;2.60;;;1.50;;
5833;SDS011;2943;48.012;10.968;2022-12-24T11:09:22;4.93;;;2.37;;
5833;SDS011;2943;48.012;10.968;2022-12-24T11:11:51;1.90;;;1.50;;
5833;SDS011;2943;48.012;10.968;2022-12-24T11:14:19;3.70;;;1.60;;
5833;SDS011;2943;48.012;10.968;2022-12-24T11:16:48;2.27;;;1.50;;
5833;SDS011;2943;48.012;10.968;2022-12-24T11:19:19;5.63;;;1.90;;
5833;SDS011;2943;48.012;10.968;2022-12-24T11:21:57;12.50;;;4.13;;
5833;SDS011;2943;48.012;10.968;2022-12-24T11:24:26;3.03;;;1.70;;
5833;SDS011;2943;48.012;10.968;2022-12-24T11:26:54;3.70;;;1.40;;
5833;SDS011;2943;48.012;10.968;2022-12-24T11:29:49;2.40;;;1.60;;
5833;SDS011;2943;48.012;10.968;2022-12-24T11:32:17;3.13;;;1.30;;
5833;SDS011;2943;48.012;10.968;2022-12-24T11:34:47;2.60;;;1.40;;
5833;SDS011;2943;48.012;10.968;2022-12-24T11:37:14;3.70;;;1.53;;
5833;SDS011;2943;48.012;10.968;2022-12-24T11:39:44;1.40;;;1.30;;
5833;SDS011;2943;48.012;10.968;2022-12-24T11:42:28;3.77;;;1.50;;
5833;SDS011;2943;48.012;10.968;2022-12-24T11:44:58;1.97;;;1.50;;
5833;SDS011;2943;48.012;10.968;2022-12-24T11:47:33;5.63;;;1.50;;
5833;SDS011;2943;48.012;10.968;2022-12-24T11:52:56;6.47;;;4.20;;
5833;SDS011;2943;48.012;10.968;2022-12-24T11:55:34;5.83;;;3.30;;
5833;SDS011;2943;48.012;10.968;2022-12-24T11:58:12;3.00;;;2.70;;
5833;SDS011;2943;48.012;10.968;2022-12-24T12:00:45;3.00;;;1.70;;
5833;SDS011;2943;48.012;10.968;2022-12-24T12:03:19;2.27;;;1.60;;
5833;SDS011;2943;48.012;10.968;2022-12-24T12:05:55;1.52;;;1.40;;
5833;SDS011;2943;48.012;10.968;2022-12-24T12:08:26;5.17;;;1.33;;
5833;SDS011;2943;48.012;10.968;2022-12-24T12:10:55;1.43;;;1.30;;
5833;SDS011;2943;48.012;10.968;2022-12-24T12:13:26;3.03;;;1.20;;
5833;SDS011;2943;48.012;10.968;2022-12-24T12:16:02;2.00;;;1.60;;
5833;SDS011;2943;48.012;10.968;2022-12-24T12:18:40;1.70;;;1.50;;
5833;SDS011;2943;48.012;10.968;2022-12-24T12:21:13;3.77;;;1.77;;
5833;SDS011;2943;48.012;10.968;2022-12-24T12:23:46;1.57;;;1.47;;
5833;SDS011;2943;48.012;10.968;2022-12-24T12:26:17;2.60;;;1.30;;
5833;SDS011;2943;48.012;10.968;2022-12-24T12:28:48;1.50;;;1.40;;
5833;SDS011;2943;48.012;10.968;2022-12-24T12:31:20;4.97;;;1.20;;
5833;SDS011;2943;48.012;10.968;2022-12-24T12:33:51;1.77;;;1.20;;
5833;SDS011;2943;48.012;10.968;2022-12-24T12:36:27;1.60;;;1.50;;
5833;SDS011;2943;48.012;10.968;2022-12-24T12:38:58;7.87;;;3.07;;
5833;SDS011;2943;48.012;10.968;2022-12-24T12:41:32;6.30;;;2.63;;
5833;SDS011;2943;48.012;10.968;2022-12-24T12:44:20;4.70;;;2.53;;
5833;SDS011;2943;48.012;10.968;2022-12-24T12:47:07;8.37;;;4.33;;
5833;SDS011;2943;48.012;10.968;2022-12-24T12:49:45;14.63;;;3.50;;
5833;SDS011;2943;48.012;10.968;2022-12-24T12:52:28;6.10;;;2.50;;
5833;SDS011;2943;48.012;10.968;2022-12-24T12:55:13;7.30;;;3.20;;
5833;SDS011;2943;48.012;10.968;2022-12-24T12:57:49;6.43;;;3.00;;
5833;SDS011;2943;48.012;10.968;2022-12-24T13:00:21;2.50;;;1.93;;
5833;SDS011;2943;48.012;10.968;2022-12-24T13:02:56;5.00;;;2.60;;
5833;SDS011;2943;48.012;10.968;2022-12-24T13:05:41;2.93;;;2.00;;
5833;SDS011;2943;48.012;10.968;2022-12-24T13:11:34;3.40;;;2.40;;
5833;SDS011;2943;48.012;10.968;2022-12-24T13:14:15;2.70;;;2.10;;
5833;SDS011;2943;48.012;10.968;2022-12-24T13:17:01;5.33;;;1.70;;
5833;SDS011;2943;48.012;10.968;2022-12-24T13:19:49;3.13;;;2.10;;
5833;SDS011;2943;48.012;10.968;2022-12-24T13:22:28;6.47;;;2.23;;
5833;SDS011;2943;48.012;10.968;2022-12-24T13:24:55;1.75;;;1.58;;
5833;SDS011;2943;48.012;10.968;2022-12-24T13:27:25;3.87;;;1.50;;
5833;SDS011;2943;48.012;10.968;2022-12-24T13:29:53;3.97;;;1.63;;
5833;SDS011;2943;48.012;10.968;2022-12-24T13:32:38;3.90;;;1.90;;
5833;SDS011;2943;48.012;10.968;2022-12-24T13:35:25;2.40;;;1.60;;
5833;SDS011;2943;48.012;10.968;2022-12-24T13:37:56;5.50;;;1.70;;
5833;SDS011;2943;48.012;10.968;2022-12-24T13:47:19;2.87;;;1.50;;
5833;SDS011;2943;48.012;10.968;2022-12-24T13:49:48;1.83;;;1.60;;
5833;SDS011;2943;48.012;10.968;2022-12-24T13:52:21;2.23;;;1.83;;
5833;SDS011;2943;48.012;10.968;2022-12-24T13:54:59;2.60;;;1.60;;
5833;SDS011;2943;48.012;10.968;2022-12-24T13:57:43;4.10;;;1.53;;
5833;SDS011;2943;48.012;10.968;2022-12-24T14:00:25;2.63;;;1.80;;
5833;SDS011;2943;48.012;10.968;2022-12-24T14:03:02;4.13;;;1.40;;
5833;SDS011;2943;48.012;10.968;2022-12-24T14:05:43;6.17;;;1.60;;
5833;SDS011;2943;48.012;10.968;2022-12-24T14:08:12;1.90;;;1.70;;
5833;SDS011;2943;48.012;10.968;2022-12-24T14:10:42;2.83;;;1.70;;
5833;SDS011;2943;48.012;10.968;2022-12-24T14:16:20;3.77;;;2.00;;
5833;SDS011;2943;48.012;10.968;2022-12-24T14:18:56;7.43;;;1.60;;
5833;SDS011;2943;48.012;10.968;2022-12-24T14:21:25;5.27;;;1.93;;
5833;SDS011;2943;48.012;10.968;2022-12-24T14:23:56;2.50;;;1.60;;
5833;SDS011;2943;48.012;10.968;2022-12-24T14:26:27;2.50;;;1.60;;
5833;SDS011;2943;48.012;10.968;2022-12-24T14:28:56;1.53;;;1.33;;
5833;SDS011;2943;48.012;10.968;2022-12-24T14:31:28;5.03;;;1.60;;
5833;SDS011;2943;48.012;10.968;2022-12-24T14:34:04;4.10;;;1.60;;
5833;SDS011;2943;48.012;10.968;2022-12-24T14:36:32;4.97;;;1.77;;
5833;SDS011;2943;48.012;10.968;2022-12-24T14:38:59;2.20;;;1.50;;
5833;SDS011;2943;48.012;10.968;2022-12-24T14:41:33;2.90;;;1.83;;
5833;SDS011;2943;48.012;10.968;2022-12-24T14:44:09;3.73;;;1.77;;
5833;SDS011;2943;48.012;10.968;2022-12-24T14:46:47;3.37;;;1.43;;
5833;SDS011;2943;48.012;10.968;2022-12-24T14:49:21;3.43;;;1.80;;
5833;SDS011;2943;48.012;10.968;2022-12-24T14:51:58;5.27;;;2.60;;
5833;SDS011;2943;48.012;10.968;2022-12-24T14:54:33;3.00;;;2.20;;
5833;SDS011;2943;48.012;10.968;2022-12-24T14:57:17;5.87;;;1.53;;
5833;SDS011;2943;48.012;10.968;2022-12-24T14:59:50;2.40;;;1.47;;
5833;SDS011;2943;48.012;10.968;2022-12-24T15:02:39;4.23;;;2.00;;
5833;SDS011;2943;48.012;10.968;2022-12-24T15:05:11;2.10;;;1.90;;
5833;SDS011;2943;48.012;10.968;2022-12-24T15:07:42;2.57;;;2.37;;
5833;SDS011;2943;48.012;10.968;2022-12-24T15:13:00;3.40;;;2.87;;
5833;SDS011;2943;48.012;10.968;2022-12-24T15:15:29;5.23;;;3.20;;
5833;SDS011;2943;48.012;10.968;2022-12-24T15:17:58;6.23;;;4.17;;
5833;SDS011;2943;48.012;10.968;2022-12-24T15:20:28;8.87;;;6.03;;
5833;SDS011;2943;48.012;10.968;2022-12-24T15:22:56;8.00;;;5.30;;
5833;SDS011;2943;48.012;10.968;2022-12-24T15:25:25;5.23;;;3.77;;
5833;SDS011;2943;48.012;10.968;2022-12-24T15:27:54;5.70;;;3.70;;
5833;SDS011;2943;48.012;10.968;2022-12-24T15:30:22;4.70;;;3.37;;
5833;SDS011;2943;48.012;10.968;2022-12-24T15:32:49;2.70;;;2.50;;
5833;SDS011;2943;48.012;10.968;2022-12-24T15:38:25;4.80;;;3.40;;
5833;SDS011;2943;48.012;10.968;2022-12-24T15:40:56;12.73;;;4.73;;
5833;SDS011;2943;48.012;10.968;2022-12-24T15:43:24;10.97;;;5.70;;
5833;SDS011;2943;48.012;10.968;2022-12-24T15:45:52;10.00;;;5.83;;
5833;SDS011;2943;48.012;10.968;2022-12-24T15:48:20;7.70;;;5.10;;
5833;SDS011;2943;48.012;10.968;2022-12-24T15:50:51;13.13;;;6.47;;